Terminal Aerodrome Forecast
Issued by NWS Atlanta, GA

Home | Current Version | Previous Version | Text Only | Print | Product List | Glossary On
Versions: 1 2 3 4 5 6 7 8 9 10 11 12 13 14 15 16 17 18 19 20 21 22 23 24
000
FTUS42 KFFC 172300
TAFMCN
TAF
KMCN 172322Z 1800/1824 08007KT P6SM BKN045
     FM180600 05008KT P6SM BKN025
     FM180900 05010KT P6SM VCSH BKN018
     FM181200 05012KT 5SM SHRA OVC014
     FM181700 06014G24KT 4SM SHRA BR OVC010=

USA.gov is the U.S. government's official web portal to all federal, state and local government web resources and services.